sensor_id;sensor_type;location;lat;lon;timestamp;P1;durP1;ratioP1;P2;durP2;ratioP2
20623;SDS011;10471;42.736;23.346;2024-03-29T00:00:39;3.80;;;1.50;;
20623;SDS011;10471;42.736;23.346;2024-03-29T00:03:06;3.73;;;1.40;;
20623;SDS011;10471;42.736;23.346;2024-03-29T00:05:32;3.43;;;1.60;;
20623;SDS011;10471;42.736;23.346;2024-03-29T00:07:58;4.93;;;1.60;;
20623;SDS011;10471;42.736;23.346;2024-03-29T00:10:24;2.63;;;1.63;;
20623;SDS011;10471;42.736;23.346;2024-03-29T00:12:49;4.40;;;1.63;;
20623;SDS011;10471;42.736;23.346;2024-03-29T00:15:15;5.40;;;1.80;;
20623;SDS011;10471;42.736;23.346;2024-03-29T00:17:40;4.37;;;1.60;;
20623;SDS011;10471;42.736;23.346;2024-03-29T00:20:06;6.40;;;2.00;;
20623;SDS011;10471;42.736;23.346;2024-03-29T00:22:32;4.03;;;1.40;;
20623;SDS011;10471;42.736;23.346;2024-03-29T00:24:57;3.63;;;1.47;;
20623;SDS011;10471;42.736;23.346;2024-03-29T00:27:23;4.00;;;1.10;;
20623;SDS011;10471;42.736;23.346;2024-03-29T00:29:50;2.90;;;1.33;;
20623;SDS011;10471;42.736;23.346;2024-03-29T00:32:19;4.47;;;1.90;;
20623;SDS011;10471;42.736;23.346;2024-03-29T00:34:45;9.17;;;2.80;;
20623;SDS011;10471;42.736;23.346;2024-03-29T00:37:11;2.93;;;1.67;;
20623;SDS011;10471;42.736;23.346;2024-03-29T00:39:37;5.23;;;1.30;;
20623;SDS011;10471;42.736;23.346;2024-03-29T00:42:03;2.87;;;1.20;;
20623;SDS011;10471;42.736;23.346;2024-03-29T00:44:31;4.23;;;1.30;;
20623;SDS011;10471;42.736;23.346;2024-03-29T00:46:57;3.97;;;1.27;;
20623;SDS011;10471;42.736;23.346;2024-03-29T00:49:23;3.63;;;1.00;;
20623;SDS011;10471;42.736;23.346;2024-03-29T00:51:48;4.70;;;1.37;;
20623;SDS011;10471;42.736;23.346;2024-03-29T00:54:14;6.33;;;1.80;;
20623;SDS011;10471;42.736;23.346;2024-03-29T00:56:39;3.87;;;1.40;;
20623;SDS011;10471;42.736;23.346;2024-03-29T00:59:05;4.27;;;1.63;;
20623;SDS011;10471;42.736;23.346;2024-03-29T01:01:31;5.37;;;1.83;;
20623;SDS011;10471;42.736;23.346;2024-03-29T01:03:57;6.33;;;1.90;;
20623;SDS011;10471;42.736;23.346;2024-03-29T01:06:23;11.00;;;5.17;;
20623;SDS011;10471;42.736;23.346;2024-03-29T01:08:48;35.13;;;12.53;;
20623;SDS011;10471;42.736;23.346;2024-03-29T01:11:14;11.13;;;3.53;;
20623;SDS011;10471;42.736;23.346;2024-03-29T01:13:39;8.20;;;2.80;;
20623;SDS011;10471;42.736;23.346;2024-03-29T01:16:04;10.00;;;2.50;;
20623;SDS011;10471;42.736;23.346;2024-03-29T01:18:30;4.93;;;2.10;;
20623;SDS011;10471;42.736;23.346;2024-03-29T01:20:56;5.83;;;2.30;;
20623;SDS011;10471;42.736;23.346;2024-03-29T01:23:22;5.73;;;2.53;;
20623;SDS011;10471;42.736;23.346;2024-03-29T01:25:47;6.93;;;2.13;;
20623;SDS011;10471;42.736;23.346;2024-03-29T01:28:13;4.43;;;1.70;;
20623;SDS011;10471;42.736;23.346;2024-03-29T01:30:38;6.17;;;2.80;;
20623;SDS011;10471;42.736;23.346;2024-03-29T01:33:04;10.80;;;2.90;;
20623;SDS011;10471;42.736;23.346;2024-03-29T01:35:29;4.40;;;1.53;;
20623;SDS011;10471;42.736;23.346;2024-03-29T01:37:55;6.63;;;1.80;;
20623;SDS011;10471;42.736;23.346;2024-03-29T01:40:20;5.23;;;1.53;;
20623;SDS011;10471;42.736;23.346;2024-03-29T01:42:45;5.70;;;1.53;;
20623;SDS011;10471;42.736;23.346;2024-03-29T01:45:11;5.10;;;1.50;;
20623;SDS011;10471;42.736;23.346;2024-03-29T01:47:36;5.13;;;1.80;;
20623;SDS011;10471;42.736;23.346;2024-03-29T01:50:02;4.73;;;1.90;;
20623;SDS011;10471;42.736;23.346;2024-03-29T01:52:28;5.30;;;1.80;;
20623;SDS011;10471;42.736;23.346;2024-03-29T01:54:54;2.80;;;1.60;;
20623;SDS011;10471;42.736;23.346;2024-03-29T01:57:20;4.13;;;1.97;;
20623;SDS011;10471;42.736;23.346;2024-03-29T01:59:46;7.77;;;2.10;;
20623;SDS011;10471;42.736;23.346;2024-03-29T02:02:12;5.80;;;1.83;;
20623;SDS011;10471;42.736;23.346;2024-03-29T02:04:38;4.83;;;1.60;;
20623;SDS011;10471;42.736;23.346;2024-03-29T02:07:04;3.40;;;1.33;;
20623;SDS011;10471;42.736;23.346;2024-03-29T02:09:29;7.03;;;2.40;;
20623;SDS011;10471;42.736;23.346;2024-03-29T02:11:55;5.30;;;2.33;;
20623;SDS011;10471;42.736;23.346;2024-03-29T02:14:20;4.83;;;1.90;;
20623;SDS011;10471;42.736;23.346;2024-03-29T02:16:46;4.93;;;2.10;;
20623;SDS011;10471;42.736;23.346;2024-03-29T02:19:11;7.33;;;2.33;;
20623;SDS011;10471;42.736;23.346;2024-03-29T02:21:37;6.53;;;2.67;;
20623;SDS011;10471;42.736;23.346;2024-03-29T02:24:07;3.57;;;1.83;;
20623;SDS011;10471;42.736;23.346;2024-03-29T02:26:33;4.77;;;1.97;;
20623;SDS011;10471;42.736;23.346;2024-03-29T02:29:04;4.53;;;1.70;;
20623;SDS011;10471;42.736;23.346;2024-03-29T02:31:29;11.47;;;3.17;;
20623;SDS011;10471;42.736;23.346;2024-03-29T02:33:55;5.17;;;1.87;;
20623;SDS011;10471;42.736;23.346;2024-03-29T02:36:21;4.07;;;1.50;;
20623;SDS011;10471;42.736;23.346;2024-03-29T02:38:46;6.77;;;2.13;;
20623;SDS011;10471;42.736;23.346;2024-03-29T02:41:11;3.03;;;1.43;;
20623;SDS011;10471;42.736;23.346;2024-03-29T02:43:37;5.07;;;1.53;;
20623;SDS011;10471;42.736;23.346;2024-03-29T02:46:02;3.53;;;1.53;;
20623;SDS011;10471;42.736;23.346;2024-03-29T02:48:28;4.03;;;1.70;;
20623;SDS011;10471;42.736;23.346;2024-03-29T02:50:53;5.10;;;1.80;;
20623;SDS011;10471;42.736;23.346;2024-03-29T02:53:19;5.43;;;1.20;;
20623;SDS011;10471;42.736;23.346;2024-03-29T02:55:44;3.67;;;1.17;;
20623;SDS011;10471;42.736;23.346;2024-03-29T02:58:09;5.57;;;1.50;;
20623;SDS011;10471;42.736;23.346;2024-03-29T03:00:35;4.03;;;1.70;;
20623;SDS011;10471;42.736;23.346;2024-03-29T03:03:00;2.63;;;1.30;;
20623;SDS011;10471;42.736;23.346;2024-03-29T03:05:26;8.37;;;1.60;;
20623;SDS011;10471;42.736;23.346;2024-03-29T03:07:51;4.43;;;1.70;;
20623;SDS011;10471;42.736;23.346;2024-03-29T03:10:35;5.97;;;1.40;;
20623;SDS011;10471;42.736;23.346;2024-03-29T03:13:19;6.93;;;1.60;;
20623;SDS011;10471;42.736;23.346;2024-03-29T03:15:44;5.13;;;2.37;;
20623;SDS011;10471;42.736;23.346;2024-03-29T03:18:10;6.77;;;2.53;;
20623;SDS011;10471;42.736;23.346;2024-03-29T03:20:35;3.30;;;1.57;;
20623;SDS011;10471;42.736;23.346;2024-03-29T03:23:03;6.07;;;2.67;;
20623;SDS011;10471;42.736;23.346;2024-03-29T03:25:28;5.33;;;2.00;;
20623;SDS011;10471;42.736;23.346;2024-03-29T03:27:54;3.77;;;1.30;;
20623;SDS011;10471;42.736;23.346;2024-03-29T03:30:19;5.57;;;1.40;;
20623;SDS011;10471;42.736;23.346;2024-03-29T03:32:45;7.27;;;1.30;;
20623;SDS011;10471;42.736;23.346;2024-03-29T03:35:10;4.00;;;1.37;;
20623;SDS011;10471;42.736;23.346;2024-03-29T03:37:36;5.00;;;1.43;;
20623;SDS011;10471;42.736;23.346;2024-03-29T03:40:01;3.20;;;1.30;;
20623;SDS011;10471;42.736;23.346;2024-03-29T03:42:29;6.10;;;1.63;;
20623;SDS011;10471;42.736;23.346;2024-03-29T03:44:55;3.80;;;1.67;;
20623;SDS011;10471;42.736;23.346;2024-03-29T03:47:20;7.13;;;2.13;;
20623;SDS011;10471;42.736;23.346;2024-03-29T03:49:46;5.57;;;1.70;;
20623;SDS011;10471;42.736;23.346;2024-03-29T03:52:11;9.97;;;2.13;;
20623;SDS011;10471;42.736;23.346;2024-03-29T03:54:37;4.17;;;1.60;;
20623;SDS011;10471;42.736;23.346;2024-03-29T03:57:02;4.57;;;1.70;;
20623;SDS011;10471;42.736;23.346;2024-03-29T03:59:28;6.27;;;1.40;;
20623;SDS011;10471;42.736;23.346;2024-03-29T04:01:53;5.43;;;1.43;;
20623;SDS011;10471;42.736;23.346;2024-03-29T04:04:19;6.90;;;2.03;;
20623;SDS011;10471;42.736;23.346;2024-03-29T04:06:44;4.30;;;1.90;;
20623;SDS011;10471;42.736;23.346;2024-03-29T04:09:10;9.97;;;2.10;;
20623;SDS011;10471;42.736;23.346;2024-03-29T04:11:36;6.50;;;3.03;;
20623;SDS011;10471;42.736;23.346;2024-03-29T04:14:01;3.73;;;2.03;;
20623;SDS011;10471;42.736;23.346;2024-03-29T04:16:26;8.00;;;2.43;;
20623;SDS011;10471;42.736;23.346;2024-03-29T04:18:52;10.77;;;3.67;;
20623;SDS011;10471;42.736;23.346;2024-03-29T04:21:17;7.33;;;2.70;;
20623;SDS011;10471;42.736;23.346;2024-03-29T04:23:43;14.53;;;3.63;;
20623;SDS011;10471;42.736;23.346;2024-03-29T04:26:08;12.27;;;5.70;;
20623;SDS011;10471;42.736;23.346;2024-03-29T04:28:34;12.23;;;3.93;;
20623;SDS011;10471;42.736;23.346;2024-03-29T04:30:59;9.70;;;3.20;;
20623;SDS011;10471;42.736;23.346;2024-03-29T04:33:26;14.33;;;4.20;;
20623;SDS011;10471;42.736;23.346;2024-03-29T04:36:01;12.00;;;4.13;;
20623;SDS011;10471;42.736;23.346;2024-03-29T04:38:28;13.87;;;3.63;;
20623;SDS011;10471;42.736;23.346;2024-03-29T04:40:55;11.63;;;4.63;;
20623;SDS011;10471;42.736;23.346;2024-03-29T04:43:22;6.73;;;3.40;;
20623;SDS011;10471;42.736;23.346;2024-03-29T04:45:49;5.17;;;2.63;;
20623;SDS011;10471;42.736;23.346;2024-03-29T04:48:14;5.07;;;2.90;;
20623;SDS011;10471;42.736;23.346;2024-03-29T04:50:40;6.33;;;2.70;;
20623;SDS011;10471;42.736;23.346;2024-03-29T04:53:07;6.23;;;2.93;;
20623;SDS011;10471;42.736;23.346;2024-03-29T04:55:33;9.97;;;3.00;;
20623;SDS011;10471;42.736;23.346;2024-03-29T04:58:00;5.57;;;2.00;;
20623;SDS011;10471;42.736;23.346;2024-03-29T05:00:26;6.37;;;2.20;;
20623;SDS011;10471;42.736;23.346;2024-03-29T05:02:51;7.37;;;2.20;;
20623;SDS011;10471;42.736;23.346;2024-03-29T05:05:16;6.93;;;2.20;;
20623;SDS011;10471;42.736;23.346;2024-03-29T05:07:42;6.40;;;2.40;;
20623;SDS011;10471;42.736;23.346;2024-03-29T05:10:07;10.53;;;3.13;;
20623;SDS011;10471;42.736;23.346;2024-03-29T05:12:34;8.70;;;2.97;;
20623;SDS011;10471;42.736;23.346;2024-03-29T05:15:00;7.33;;;2.70;;
20623;SDS011;10471;42.736;23.346;2024-03-29T05:17:25;7.67;;;2.80;;
20623;SDS011;10471;42.736;23.346;2024-03-29T05:19:52;9.57;;;3.40;;
20623;SDS011;10471;42.736;23.346;2024-03-29T05:22:18;11.60;;;4.70;;
20623;SDS011;10471;42.736;23.346;2024-03-29T05:24:44;12.60;;;3.60;;
20623;SDS011;10471;42.736;23.346;2024-03-29T05:27:10;16.63;;;4.30;;
20623;SDS011;10471;42.736;23.346;2024-03-29T05:29:36;13.60;;;4.40;;
20623;SDS011;10471;42.736;23.346;2024-03-29T05:32:03;14.70;;;3.47;;
20623;SDS011;10471;42.736;23.346;2024-03-29T05:34:29;19.67;;;5.70;;
20623;SDS011;10471;42.736;23.346;2024-03-29T05:36:54;17.10;;;5.73;;
20623;SDS011;10471;42.736;23.346;2024-03-29T05:39:20;14.87;;;5.43;;
20623;SDS011;10471;42.736;23.346;2024-03-29T05:41:45;12.67;;;4.70;;
20623;SDS011;10471;42.736;23.346;2024-03-29T05:44:11;18.27;;;5.10;;
20623;SDS011;10471;42.736;23.346;2024-03-29T05:46:36;13.27;;;4.77;;
20623;SDS011;10471;42.736;23.346;2024-03-29T05:49:02;13.50;;;5.83;;
20623;SDS011;10471;42.736;23.346;2024-03-29T05:51:28;14.73;;;6.30;;
20623;SDS011;10471;42.736;23.346;2024-03-29T05:53:53;11.00;;;4.93;;
20623;SDS011;10471;42.736;23.346;2024-03-29T05:56:21;20.10;;;5.33;;
20623;SDS011;10471;42.736;23.346;2024-03-29T05:58:47;10.87;;;3.30;;
20623;SDS011;10471;42.736;23.346;2024-03-29T06:01:12;13.17;;;3.63;;
20623;SDS011;10471;42.736;23.346;2024-03-29T06:03:38;11.43;;;3.60;;
20623;SDS011;10471;42.736;23.346;2024-03-29T06:06:03;11.03;;;3.20;;
20623;SDS011;10471;42.736;23.346;2024-03-29T06:08:29;12.40;;;2.60;;
20623;SDS011;10471;42.736;23.346;2024-03-29T06:10:55;13.37;;;3.00;;
20623;SDS011;10471;42.736;23.346;2024-03-29T06:13:22;12.40;;;2.70;;
20623;SDS011;10471;42.736;23.346;2024-03-29T06:16:13;12.93;;;2.70;;
20623;SDS011;10471;42.736;23.346;2024-03-29T06:18:57;7.60;;;2.30;;
20623;SDS011;10471;42.736;23.346;2024-03-29T06:21:22;12.40;;;3.00;;
20623;SDS011;10471;42.736;23.346;2024-03-29T06:23:48;14.73;;;3.17;;
20623;SDS011;10471;42.736;23.346;2024-03-29T06:26:13;11.37;;;3.07;;
20623;SDS011;10471;42.736;23.346;2024-03-29T06:28:39;17.20;;;3.10;;
20623;SDS011;10471;42.736;23.346;2024-03-29T06:31:04;17.70;;;2.93;;
20623;SDS011;10471;42.736;23.346;2024-03-29T06:33:30;10.90;;;2.70;;
20623;SDS011;10471;42.736;23.346;2024-03-29T06:35:55;9.90;;;2.30;;
20623;SDS011;10471;42.736;23.346;2024-03-29T06:38:21;10.93;;;2.50;;
20623;SDS011;10471;42.736;23.346;2024-03-29T06:40:46;7.87;;;2.27;;
20623;SDS011;10471;42.736;23.346;2024-03-29T06:43:12;12.27;;;2.20;;
20623;SDS011;10471;42.736;23.346;2024-03-29T06:45:41;9.67;;;2.00;;
20623;SDS011;10471;42.736;23.346;2024-03-29T06:48:08;7.93;;;1.70;;
20623;SDS011;10471;42.736;23.346;2024-03-29T06:50:33;4.73;;;1.50;;
20623;SDS011;10471;42.736;23.346;2024-03-29T06:52:59;8.90;;;2.20;;
20623;SDS011;10471;42.736;23.346;2024-03-29T06:55:25;8.53;;;2.33;;
20623;SDS011;10471;42.736;23.346;2024-03-29T06:57:50;7.13;;;1.83;;
20623;SDS011;10471;42.736;23.346;2024-03-29T07:00:16;3.87;;;1.60;;
20623;SDS011;10471;42.736;23.346;2024-03-29T07:02:42;8.40;;;2.00;;
20623;SDS011;10471;42.736;23.346;2024-03-29T07:05:08;7.33;;;1.77;;
20623;SDS011;10471;42.736;23.346;2024-03-29T07:07:36;7.07;;;1.73;;
20623;SDS011;10471;42.736;23.346;2024-03-29T07:10:02;5.50;;;1.50;;
20623;SDS011;10471;42.736;23.346;2024-03-29T07:12:28;4.73;;;1.63;;
20623;SDS011;10471;42.736;23.346;2024-03-29T07:14:53;5.43;;;1.10;;
20623;SDS011;10471;42.736;23.346;2024-03-29T07:17:19;2.30;;;1.10;;
20623;SDS011;10471;42.736;23.346;2024-03-29T07:19:44;3.47;;;1.30;;
20623;SDS011;10471;42.736;23.346;2024-03-29T07:22:10;5.60;;;1.47;;
20623;SDS011;10471;42.736;23.346;2024-03-29T07:24:35;7.80;;;1.17;;
20623;SDS011;10471;42.736;23.346;2024-03-29T07:27:01;3.47;;;0.90;;
20623;SDS011;10471;42.736;23.346;2024-03-29T07:29:26;7.43;;;1.20;;
20623;SDS011;10471;42.736;23.346;2024-03-29T07:31:52;3.97;;;0.90;;
20623;SDS011;10471;42.736;23.346;2024-03-29T07:34:17;4.27;;;0.90;;
20623;SDS011;10471;42.736;23.346;2024-03-29T07:36:43;2.83;;;1.10;;
20623;SDS011;10471;42.736;23.346;2024-03-29T07:39:08;7.33;;;1.40;;
20623;SDS011;10471;42.736;23.346;2024-03-29T07:41:34;4.80;;;1.10;;
20623;SDS011;10471;42.736;23.346;2024-03-29T07:43:59;7.47;;;1.40;;
20623;SDS011;10471;42.736;23.346;2024-03-29T07:46:29;6.23;;;1.10;;
20623;SDS011;10471;42.736;23.346;2024-03-29T07:48:57;4.37;;;1.33;;
20623;SDS011;10471;42.736;23.346;2024-03-29T07:51:22;4.70;;;1.00;;
20623;SDS011;10471;42.736;23.346;2024-03-29T07:53:48;4.40;;;0.90;;
20623;SDS011;10471;42.736;23.346;2024-03-29T07:56:13;7.57;;;0.80;;
20623;SDS011;10471;42.736;23.346;2024-03-29T07:58:39;6.20;;;1.23;;
20623;SDS011;10471;42.736;23.346;2024-03-29T08:01:04;3.63;;;0.90;;
20623;SDS011;10471;42.736;23.346;2024-03-29T08:03:30;4.43;;;1.00;;
20623;SDS011;10471;42.736;23.346;2024-03-29T08:05:59;2.77;;;0.83;;
20623;SDS011;10471;42.736;23.346;2024-03-29T08:08:29;7.50;;;1.07;;
20623;SDS011;10471;42.736;23.346;2024-03-29T08:10:58;3.07;;;1.00;;
20623;SDS011;10471;42.736;23.346;2024-03-29T08:13:24;4.53;;;1.20;;
20623;SDS011;10471;42.736;23.346;2024-03-29T08:15:55;3.37;;;1.07;;
20623;SDS011;10471;42.736;23.346;2024-03-29T08:18:23;8.43;;;1.20;;
20623;SDS011;10471;42.736;23.346;2024-03-29T08:20:48;6.67;;;1.43;;
20623;SDS011;10471;42.736;23.346;2024-03-29T08:23:13;6.73;;;1.20;;
20623;SDS011;10471;42.736;23.346;2024-03-29T08:25:39;4.33;;;1.13;;
20623;SDS011;10471;42.736;23.346;2024-03-29T08:28:04;2.47;;;1.13;;
20623;SDS011;10471;42.736;23.346;2024-03-29T08:30:30;2.20;;;1.00;;
20623;SDS011;10471;42.736;23.346;2024-03-29T08:33:00;4.43;;;1.30;;
20623;SDS011;10471;42.736;23.346;2024-03-29T08:35:35;4.33;;;1.20;;
20623;SDS011;10471;42.736;23.346;2024-03-29T08:38:00;5.27;;;1.27;;
20623;SDS011;10471;42.736;23.346;2024-03-29T08:40:27;5.77;;;1.20;;
20623;SDS011;10471;42.736;23.346;2024-03-29T08:42:54;5.60;;;1.00;;
20623;SDS011;10471;42.736;23.346;2024-03-29T08:45:20;9.30;;;1.27;;
20623;SDS011;10471;42.736;23.346;2024-03-29T08:47:46;5.67;;;1.40;;
20623;SDS011;10471;42.736;23.346;2024-03-29T08:50:12;4.77;;;1.20;;
20623;SDS011;10471;42.736;23.346;2024-03-29T08:52:39;4.00;;;1.03;;
20623;SDS011;10471;42.736;23.346;2024-03-29T08:55:05;3.63;;;1.07;;
20623;SDS011;10471;42.736;23.346;2024-03-29T08:57:31;5.93;;;1.50;;
20623;SDS011;10471;42.736;23.346;2024-03-29T08:59:57;6.07;;;1.43;;
20623;SDS011;10471;42.736;23.346;2024-03-29T09:02:23;3.70;;;1.30;;
20623;SDS011;10471;42.736;23.346;2024-03-29T09:04:48;4.73;;;1.17;;
20623;SDS011;10471;42.736;23.346;2024-03-29T09:07:14;3.80;;;1.23;;
20623;SDS011;10471;42.736;23.346;2024-03-29T09:09:40;5.80;;;0.90;;
20623;SDS011;10471;42.736;23.346;2024-03-29T09:12:09;5.03;;;0.90;;
20623;SDS011;10471;42.736;23.346;2024-03-29T09:14:35;6.07;;;1.20;;
20623;SDS011;10471;42.736;23.346;2024-03-29T09:17:01;5.00;;;1.07;;
20623;SDS011;10471;42.736;23.346;2024-03-29T09:19:27;7.10;;;1.30;;
20623;SDS011;10471;42.736;23.346;2024-03-29T09:21:55;5.13;;;1.03;;
20623;SDS011;10471;42.736;23.346;2024-03-29T09:24:20;4.47;;;1.17;;
20623;SDS011;10471;42.736;23.346;2024-03-29T09:26:48;4.77;;;1.30;;
20623;SDS011;10471;42.736;23.346;2024-03-29T09:29:15;3.40;;;1.13;;
20623;SDS011;10471;42.736;23.346;2024-03-29T09:31:41;4.87;;;1.00;;
20623;SDS011;10471;42.736;23.346;2024-03-29T09:34:07;3.53;;;1.30;;
20623;SDS011;10471;42.736;23.346;2024-03-29T09:36:35;4.33;;;1.37;;
20623;SDS011;10471;42.736;23.346;2024-03-29T09:39:00;3.63;;;1.20;;
20623;SDS011;10471;42.736;23.346;2024-03-29T09:41:27;2.93;;;1.20;;
20623;SDS011;10471;42.736;23.346;2024-03-29T09:43:53;3.73;;;1.00;;
20623;SDS011;10471;42.736;23.346;2024-03-29T09:46:23;5.37;;;1.00;;
20623;SDS011;10471;42.736;23.346;2024-03-29T09:48:50;3.73;;;0.90;;
20623;SDS011;10471;42.736;23.346;2024-03-29T09:51:18;4.33;;;0.90;;
20623;SDS011;10471;42.736;23.346;2024-03-29T09:53:45;6.17;;;1.20;;
20623;SDS011;10471;42.736;23.346;2024-03-29T09:56:11;3.80;;;0.93;;
20623;SDS011;10471;42.736;23.346;2024-03-29T09:58:37;5.97;;;1.10;;
20623;SDS011;10471;42.736;23.346;2024-03-29T10:01:03;9.70;;;1.10;;
20623;SDS011;10471;42.736;23.346;2024-03-29T10:03:31;3.97;;;1.07;;
20623;SDS011;10471;42.736;23.346;2024-03-29T10:06:00;4.83;;;1.33;;
20623;SDS011;10471;42.736;23.346;2024-03-29T10:08:26;4.23;;;1.07;;
20623;SDS011;10471;42.736;23.346;2024-03-29T10:10:54;3.50;;;1.13;;
20623;SDS011;10471;42.736;23.346;2024-03-29T10:13:20;4.33;;;1.00;;
20623;SDS011;10471;42.736;23.346;2024-03-29T10:15:46;3.07;;;1.00;;
20623;SDS011;10471;42.736;23.346;2024-03-29T10:18:14;4.60;;;0.90;;
20623;SDS011;10471;42.736;23.346;2024-03-29T10:20:40;3.97;;;1.10;;
20623;SDS011;10471;42.736;23.346;2024-03-29T10:23:06;4.00;;;1.00;;
20623;SDS011;10471;42.736;23.346;2024-03-29T10:25:33;8.20;;;1.37;;
20623;SDS011;10471;42.736;23.346;2024-03-29T10:27:59;8.47;;;1.00;;
20623;SDS011;10471;42.736;23.346;2024-03-29T10:30:27;5.57;;;1.00;;
20623;SDS011;10471;42.736;23.346;2024-03-29T10:32:52;3.47;;;0.83;;
20623;SDS011;10471;42.736;23.346;2024-03-29T10:35:20;3.07;;;1.00;;
20623;SDS011;10471;42.736;23.346;2024-03-29T10:37:45;3.20;;;1.03;;
20623;SDS011;10471;42.736;23.346;2024-03-29T10:40:11;4.07;;;1.10;;
20623;SDS011;10471;42.736;23.346;2024-03-29T10:42:40;5.20;;;0.97;;
20623;SDS011;10471;42.736;23.346;2024-03-29T10:45:06;5.73;;;1.20;;
20623;SDS011;10471;42.736;23.346;2024-03-29T10:47:32;9.17;;;1.27;;
20623;SDS011;10471;42.736;23.346;2024-03-29T10:49:59;5.53;;;1.20;;
20623;SDS011;10471;42.736;23.346;2024-03-29T10:52:25;4.47;;;1.30;;
20623;SDS011;10471;42.736;23.346;2024-03-29T10:54:51;2.87;;;0.80;;
20623;SDS011;10471;42.736;23.346;2024-03-29T10:57:24;4.60;;;1.77;;
20623;SDS011;10471;42.736;23.346;2024-03-29T10:59:57;4.93;;;1.70;;
20623;SDS011;10471;42.736;23.346;2024-03-29T11:02:32;5.07;;;1.13;;
20623;SDS011;10471;42.736;23.346;2024-03-29T11:04:59;5.83;;;1.20;;
20623;SDS011;10471;42.736;23.346;2024-03-29T11:07:31;5.43;;;1.30;;
20623;SDS011;10471;42.736;23.346;2024-03-29T11:10:03;3.73;;;1.00;;
20623;SDS011;10471;42.736;23.346;2024-03-29T11:12:35;6.40;;;1.23;;
20623;SDS011;10471;42.736;23.346;2024-03-29T11:15:06;5.23;;;1.30;;
20623;SDS011;10471;42.736;23.346;2024-03-29T11:17:40;5.03;;;1.23;;
20623;SDS011;10471;42.736;23.346;2024-03-29T11:20:05;5.87;;;1.40;;
20623;SDS011;10471;42.736;23.346;2024-03-29T11:22:32;5.87;;;1.17;;
20623;SDS011;10471;42.736;23.346;2024-03-29T11:24:57;4.57;;;1.20;;
20623;SDS011;10471;42.736;23.346;2024-03-29T11:27:26;6.77;;;1.10;;
20623;SDS011;10471;42.736;23.346;2024-03-29T11:29:52;3.57;;;1.10;;
20623;SDS011;10471;42.736;23.346;2024-03-29T11:32:36;3.63;;;1.00;;
20623;SDS011;10471;42.736;23.346;2024-03-29T11:35:03;5.70;;;1.17;;
20623;SDS011;10471;42.736;23.346;2024-03-29T11:37:30;6.03;;;1.10;;
20623;SDS011;10471;42.736;23.346;2024-03-29T11:39:58;5.47;;;1.27;;
20623;SDS011;10471;42.736;23.346;2024-03-29T11:42:43;5.10;;;1.13;;
20623;SDS011;10471;42.736;23.346;2024-03-29T11:45:10;3.83;;;1.07;;
20623;SDS011;10471;42.736;23.346;2024-03-29T11:47:37;5.43;;;1.00;;
20623;SDS011;10471;42.736;23.346;2024-03-29T11:50:05;7.23;;;1.50;;
20623;SDS011;10471;42.736;23.346;2024-03-29T11:52:33;4.10;;;1.20;;
20623;SDS011;10471;42.736;23.346;2024-03-29T11:54:58;2.27;;;0.93;;
20623;SDS011;10471;42.736;23.346;2024-03-29T11:57:24;4.73;;;1.13;;
20623;SDS011;10471;42.736;23.346;2024-03-29T11:59:49;5.07;;;1.30;;
20623;SDS011;10471;42.736;23.346;2024-03-29T12:02:15;2.77;;;1.07;;
20623;SDS011;10471;42.736;23.346;2024-03-29T12:04:42;4.87;;;1.07;;
20623;SDS011;10471;42.736;23.346;2024-03-29T12:07:07;4.47;;;1.10;;
20623;SDS011;10471;42.736;23.346;2024-03-29T12:09:33;2.40;;;1.13;;
20623;SDS011;10471;42.736;23.346;2024-03-29T12:11:58;3.90;;;1.00;;
20623;SDS011;10471;42.736;23.346;2024-03-29T12:14:28;2.60;;;0.90;;
20623;SDS011;10471;42.736;23.346;2024-03-29T12:16:59;5.43;;;1.17;;
20623;SDS011;10471;42.736;23.346;2024-03-29T12:19:25;3.23;;;1.30;;
20623;SDS011;10471;42.736;23.346;2024-03-29T12:21:52;7.30;;;0.90;;
20623;SDS011;10471;42.736;23.346;2024-03-29T12:24:18;5.67;;;1.17;;
20623;SDS011;10471;42.736;23.346;2024-03-29T12:26:45;3.23;;;1.10;;
20623;SDS011;10471;42.736;23.346;2024-03-29T12:29:13;5.07;;;1.30;;
20623;SDS011;10471;42.736;23.346;2024-03-29T12:31:39;4.70;;;1.30;;
20623;SDS011;10471;42.736;23.346;2024-03-29T12:34:04;5.43;;;1.53;;
20623;SDS011;10471;42.736;23.346;2024-03-29T12:36:32;4.13;;;1.30;;
20623;SDS011;10471;42.736;23.346;2024-03-29T12:38:58;2.53;;;1.00;;
20623;SDS011;10471;42.736;23.346;2024-03-29T12:41:30;5.23;;;1.00;;
20623;SDS011;10471;42.736;23.346;2024-03-29T12:43:56;4.70;;;1.10;;
20623;SDS011;10471;42.736;23.346;2024-03-29T12:46:22;3.80;;;1.10;;
20623;SDS011;10471;42.736;23.346;2024-03-29T12:48:48;2.40;;;1.23;;
20623;SDS011;10471;42.736;23.346;2024-03-29T12:51:13;2.60;;;1.00;;
20623;SDS011;10471;42.736;23.346;2024-03-29T12:53:39;5.07;;;1.47;;
20623;SDS011;10471;42.736;23.346;2024-03-29T12:56:04;7.70;;;3.50;;
20623;SDS011;10471;42.736;23.346;2024-03-29T12:58:30;3.03;;;0.90;;
20623;SDS011;10471;42.736;23.346;2024-03-29T13:00:56;1.63;;;1.07;;
20623;SDS011;10471;42.736;23.346;2024-03-29T13:03:21;5.10;;;1.57;;
20623;SDS011;10471;42.736;23.346;2024-03-29T13:05:47;3.60;;;1.30;;
20623;SDS011;10471;42.736;23.346;2024-03-29T13:08:13;3.17;;;1.07;;
20623;SDS011;10471;42.736;23.346;2024-03-29T13:10:42;4.17;;;1.20;;
20623;SDS011;10471;42.736;23.346;2024-03-29T13:13:09;5.33;;;1.53;;
20623;SDS011;10471;42.736;23.346;2024-03-29T13:15:35;3.07;;;0.80;;
20623;SDS011;10471;42.736;23.346;2024-03-29T13:18:02;4.47;;;1.00;;
20623;SDS011;10471;42.736;23.346;2024-03-29T13:20:32;4.03;;;1.00;;
20623;SDS011;10471;42.736;23.346;2024-03-29T13:23:01;3.80;;;1.17;;
20623;SDS011;10471;42.736;23.346;2024-03-29T13:25:28;5.30;;;1.20;;
20623;SDS011;10471;42.736;23.346;2024-03-29T13:27:53;4.37;;;1.10;;
20623;SDS011;10471;42.736;23.346;2024-03-29T13:30:23;3.37;;;1.10;;
20623;SDS011;10471;42.736;23.346;2024-03-29T13:32:52;2.50;;;0.87;;
20623;SDS011;10471;42.736;23.346;2024-03-29T13:35:18;3.23;;;1.10;;
20623;SDS011;10471;42.736;23.346;2024-03-29T13:37:46;2.10;;;0.90;;
20623;SDS011;10471;42.736;23.346;2024-03-29T13:40:13;2.93;;;1.10;;
20623;SDS011;10471;42.736;23.346;2024-03-29T13:42:40;5.23;;;1.50;;
20623;SDS011;10471;42.736;23.346;2024-03-29T13:45:06;4.23;;;1.00;;
20623;SDS011;10471;42.736;23.346;2024-03-29T13:47:44;4.93;;;1.03;;
20623;SDS011;10471;42.736;23.346;2024-03-29T13:50:13;4.40;;;1.13;;
20623;SDS011;10471;42.736;23.346;2024-03-29T13:52:40;6.63;;;1.47;;
20623;SDS011;10471;42.736;23.346;2024-03-29T13:55:07;3.07;;;1.30;;
20623;SDS011;10471;42.736;23.346;2024-03-29T13:57:33;4.93;;;1.03;;
20623;SDS011;10471;42.736;23.346;2024-03-29T13:59:58;4.10;;;1.10;;
20623;SDS011;10471;42.736;23.346;2024-03-29T14:02:24;4.43;;;1.30;;
20623;SDS011;10471;42.736;23.346;2024-03-29T14:04:53;4.33;;;1.27;;
20623;SDS011;10471;42.736;23.346;2024-03-29T14:07:19;3.23;;;1.00;;
20623;SDS011;10471;42.736;23.346;2024-03-29T14:09:45;3.93;;;1.00;;
20623;SDS011;10471;42.736;23.346;2024-03-29T14:12:12;5.83;;;1.23;;
20623;SDS011;10471;42.736;23.346;2024-03-29T14:14:38;3.17;;;1.20;;
20623;SDS011;10471;42.736;23.346;2024-03-29T14:17:04;5.07;;;1.10;;
20623;SDS011;10471;42.736;23.346;2024-03-29T14:19:32;4.27;;;0.90;;
20623;SDS011;10471;42.736;23.346;2024-03-29T14:22:01;2.00;;;0.70;;
20623;SDS011;10471;42.736;23.346;2024-03-29T14:24:28;5.93;;;1.30;;
20623;SDS011;10471;42.736;23.346;2024-03-29T14:26:59;4.90;;;1.23;;
20623;SDS011;10471;42.736;23.346;2024-03-29T14:29:24;3.33;;;1.30;;